Terminal Aerodrome Forecast
Issued by NWS

Home | Current Version | Previous Version | Text Only | Print | Product List | Glossary On
Versions: 1 2 3 4 5 6 7 8 9 10 11 12 13 14 15 16 17 18 19 20
939
FTUS43 KMPX 212340
TAFRWF
TAF
KRWF 212340Z 2200/2224 25005KT P6SM FEW250
     FM220400 15004KT P6SM BKN200
     FM221600 12007KT P6SM VCSH OVC035
     FM221800 12009KT 1 1/2SM -SN BR OVC015
     FM221900 12009KT 3/4SM -SN BR VV008=

USA.gov is the U.S. government's official web portal to all federal, state and local government web resources and services.